sensor_id;sensor_type;location;lat;lon;timestamp;temperature;humidity
12720;DHT22;6424;48.520;11.228;2023-12-20T00:00:38;4.40;99.90
12720;DHT22;6424;48.520;11.228;2023-12-20T00:03:23;4.40;99.90
12720;DHT22;6424;48.520;11.228;2023-12-20T00:06:08;4.40;99.90
12720;DHT22;6424;48.520;11.228;2023-12-20T00:08:52;4.50;99.90
12720;DHT22;6424;48.520;11.228;2023-12-20T00:11:38;4.50;99.90
12720;DHT22;6424;48.520;11.228;2023-12-20T00:14:22;4.50;99.90
12720;DHT22;6424;48.520;11.228;2023-12-20T00:17:06;4.60;99.90
12720;DHT22;6424;48.520;11.228;2023-12-20T00:19:51;4.60;99.90
12720;DHT22;6424;48.520;11.228;2023-12-20T00:22:36;4.60;99.90
12720;DHT22;6424;48.520;11.228;2023-12-20T00:25:20;4.60;99.90
12720;DHT22;6424;48.520;11.228;2023-12-20T00:28:05;4.70;99.90
12720;DHT22;6424;48.520;11.228;2023-12-20T00:30:50;4.80;99.90
12720;DHT22;6424;48.520;11.228;2023-12-20T00:33:34;4.80;99.90
12720;DHT22;6424;48.520;11.228;2023-12-20T00:36:18;4.80;99.90
12720;DHT22;6424;48.520;11.228;2023-12-20T00:39:03;4.80;99.90
12720;DHT22;6424;48.520;11.228;2023-12-20T00:41:48;4.80;99.90
12720;DHT22;6424;48.520;11.228;2023-12-20T00:44:32;4.80;99.90
12720;DHT22;6424;48.520;11.228;2023-12-20T00:47:16;4.80;99.90
12720;DHT22;6424;48.520;11.228;2023-12-20T00:50:01;4.70;99.90
12720;DHT22;6424;48.520;11.228;2023-12-20T00:52:46;4.70;99.90
12720;DHT22;6424;48.520;11.228;2023-12-20T00:55:30;4.70;99.90
12720;DHT22;6424;48.520;11.228;2023-12-20T00:58:14;4.70;99.90
12720;DHT22;6424;48.520;11.228;2023-12-20T01:00:59;4.60;99.90
12720;DHT22;6424;48.520;11.228;2023-12-20T01:03:43;4.60;99.90
12720;DHT22;6424;48.520;11.228;2023-12-20T01:06:28;4.60;99.90
12720;DHT22;6424;48.520;11.228;2023-12-20T01:09:12;4.60;99.90
12720;DHT22;6424;48.520;11.228;2023-12-20T01:11:56;4.70;99.90
12720;DHT22;6424;48.520;11.228;2023-12-20T01:14:41;4.70;99.90
12720;DHT22;6424;48.520;11.228;2023-12-20T01:17:25;4.70;99.90
12720;DHT22;6424;48.520;11.228;2023-12-20T01:20:09;4.70;99.90
12720;DHT22;6424;48.520;11.228;2023-12-20T01:22:53;4.70;99.90
12720;DHT22;6424;48.520;11.228;2023-12-20T01:25:39;4.70;99.90
12720;DHT22;6424;48.520;11.228;2023-12-20T01:28:23;4.70;99.90
12720;DHT22;6424;48.520;11.228;2023-12-20T01:31:08;4.70;99.90
12720;DHT22;6424;48.520;11.228;2023-12-20T01:33:53;4.70;99.90
12720;DHT22;6424;48.520;11.228;2023-12-20T01:36:37;4.70;99.90
12720;DHT22;6424;48.520;11.228;2023-12-20T01:39:21;4.70;99.90
12720;DHT22;6424;48.520;11.228;2023-12-20T01:42:06;4.70;99.90
12720;DHT22;6424;48.520;11.228;2023-12-20T01:44:50;4.80;99.90
12720;DHT22;6424;48.520;11.228;2023-12-20T01:47:35;4.80;99.90
12720;DHT22;6424;48.520;11.228;2023-12-20T01:50:21;4.90;99.90
12720;DHT22;6424;48.520;11.228;2023-12-20T01:53:08;4.90;99.90
12720;DHT22;6424;48.520;11.228;2023-12-20T01:55:55;4.90;99.90
12720;DHT22;6424;48.520;11.228;2023-12-20T01:58:44;4.90;99.90
12720;DHT22;6424;48.520;11.228;2023-12-20T02:01:30;5.00;99.90
12720;DHT22;6424;48.520;11.228;2023-12-20T02:04:15;5.00;99.90
12720;DHT22;6424;48.520;11.228;2023-12-20T02:07:00;5.00;99.90
12720;DHT22;6424;48.520;11.228;2023-12-20T02:09:45;5.00;99.90
12720;DHT22;6424;48.520;11.228;2023-12-20T02:12:30;5.00;99.90
12720;DHT22;6424;48.520;11.228;2023-12-20T02:15:14;5.00;99.90
12720;DHT22;6424;48.520;11.228;2023-12-20T02:17:59;5.00;99.90
12720;DHT22;6424;48.520;11.228;2023-12-20T02:20:44;5.00;99.90
12720;DHT22;6424;48.520;11.228;2023-12-20T02:23:29;5.00;99.90
12720;DHT22;6424;48.520;11.228;2023-12-20T02:26:13;5.00;99.90
12720;DHT22;6424;48.520;11.228;2023-12-20T02:28:58;5.00;99.90
12720;DHT22;6424;48.520;11.228;2023-12-20T02:31:43;5.10;99.90
12720;DHT22;6424;48.520;11.228;2023-12-20T02:34:27;5.10;99.90
12720;DHT22;6424;48.520;11.228;2023-12-20T02:37:11;5.10;99.90
12720;DHT22;6424;48.520;11.228;2023-12-20T02:39:55;5.10;99.90
12720;DHT22;6424;48.520;11.228;2023-12-20T02:42:40;5.10;99.90
12720;DHT22;6424;48.520;11.228;2023-12-20T02:45:25;5.10;99.90
12720;DHT22;6424;48.520;11.228;2023-12-20T02:48:10;5.00;99.90
12720;DHT22;6424;48.520;11.228;2023-12-20T02:50:54;5.00;99.90
12720;DHT22;6424;48.520;11.228;2023-12-20T02:53:39;5.00;99.90
12720;DHT22;6424;48.520;11.228;2023-12-20T02:56:23;5.00;99.90
12720;DHT22;6424;48.520;11.228;2023-12-20T02:59:07;4.90;99.90
12720;DHT22;6424;48.520;11.228;2023-12-20T03:01:53;4.90;99.90
12720;DHT22;6424;48.520;11.228;2023-12-20T03:04:37;4.90;99.90
12720;DHT22;6424;48.520;11.228;2023-12-20T03:07:21;4.90;99.90
12720;DHT22;6424;48.520;11.228;2023-12-20T03:10:05;4.90;99.90
12720;DHT22;6424;48.520;11.228;2023-12-20T03:12:51;4.80;99.90
12720;DHT22;6424;48.520;11.228;2023-12-20T03:15:35;4.80;99.90
12720;DHT22;6424;48.520;11.228;2023-12-20T03:18:20;4.70;99.90
12720;DHT22;6424;48.520;11.228;2023-12-20T03:21:04;4.70;99.90
12720;DHT22;6424;48.520;11.228;2023-12-20T03:23:49;4.70;99.90
12720;DHT22;6424;48.520;11.228;2023-12-20T03:26:34;4.70;99.90
12720;DHT22;6424;48.520;11.228;2023-12-20T03:29:18;4.60;99.90
12720;DHT22;6424;48.520;11.228;2023-12-20T03:32:03;4.60;99.90
12720;DHT22;6424;48.520;11.228;2023-12-20T03:34:47;4.60;99.90
12720;DHT22;6424;48.520;11.228;2023-12-20T03:37:32;4.50;99.90
12720;DHT22;6424;48.520;11.228;2023-12-20T03:40:16;4.40;99.90
12720;DHT22;6424;48.520;11.228;2023-12-20T03:43:00;4.30;99.90
12720;DHT22;6424;48.520;11.228;2023-12-20T03:45:45;4.30;99.90
12720;DHT22;6424;48.520;11.228;2023-12-20T03:48:32;4.20;99.90
12720;DHT22;6424;48.520;11.228;2023-12-20T03:51:17;4.20;99.90
12720;DHT22;6424;48.520;11.228;2023-12-20T03:54:01;4.20;99.90
12720;DHT22;6424;48.520;11.228;2023-12-20T03:56:45;4.10;99.90
12720;DHT22;6424;48.520;11.228;2023-12-20T03:59:30;4.10;99.90
12720;DHT22;6424;48.520;11.228;2023-12-20T04:02:14;4.00;99.90
12720;DHT22;6424;48.520;11.228;2023-12-20T04:04:58;4.00;99.90
12720;DHT22;6424;48.520;11.228;2023-12-20T04:07:42;4.00;99.90
12720;DHT22;6424;48.520;11.228;2023-12-20T04:10:27;4.00;99.90
12720;DHT22;6424;48.520;11.228;2023-12-20T04:13:11;4.00;99.90
12720;DHT22;6424;48.520;11.228;2023-12-20T04:15:56;3.90;99.90
12720;DHT22;6424;48.520;11.228;2023-12-20T04:18:41;3.90;99.90
12720;DHT22;6424;48.520;11.228;2023-12-20T04:21:25;3.90;99.90
12720;DHT22;6424;48.520;11.228;2023-12-20T04:24:09;3.90;99.90
12720;DHT22;6424;48.520;11.228;2023-12-20T04:26:53;3.90;99.90
12720;DHT22;6424;48.520;11.228;2023-12-20T04:29:37;3.90;99.90
12720;DHT22;6424;48.520;11.228;2023-12-20T04:32:22;3.90;99.90
12720;DHT22;6424;48.520;11.228;2023-12-20T04:35:06;3.90;99.90
12720;DHT22;6424;48.520;11.228;2023-12-20T04:37:52;3.90;99.90
12720;DHT22;6424;48.520;11.228;2023-12-20T04:40:37;3.90;99.90
12720;DHT22;6424;48.520;11.228;2023-12-20T04:43:21;3.90;99.90
12720;DHT22;6424;48.520;11.228;2023-12-20T04:46:06;3.90;99.90
12720;DHT22;6424;48.520;11.228;2023-12-20T04:48:50;3.90;99.90
12720;DHT22;6424;48.520;11.228;2023-12-20T04:51:35;3.90;99.90
12720;DHT22;6424;48.520;11.228;2023-12-20T04:54:20;4.00;99.90
12720;DHT22;6424;48.520;11.228;2023-12-20T04:57:04;3.90;99.90
12720;DHT22;6424;48.520;11.228;2023-12-20T04:59:48;3.90;99.90
12720;DHT22;6424;48.520;11.228;2023-12-20T05:02:33;3.90;99.90
12720;DHT22;6424;48.520;11.228;2023-12-20T05:05:16;3.90;99.90
12720;DHT22;6424;48.520;11.228;2023-12-20T05:08:02;3.90;99.90
12720;DHT22;6424;48.520;11.228;2023-12-20T05:10:46;3.90;99.90
12720;DHT22;6424;48.520;11.228;2023-12-20T05:13:30;3.90;99.90
12720;DHT22;6424;48.520;11.228;2023-12-20T05:16:14;3.90;99.90
12720;DHT22;6424;48.520;11.228;2023-12-20T05:19:01;3.90;99.90
12720;DHT22;6424;48.520;11.228;2023-12-20T05:21:50;3.90;99.90
12720;DHT22;6424;48.520;11.228;2023-12-20T05:24:34;3.90;99.90
12720;DHT22;6424;48.520;11.228;2023-12-20T05:27:18;3.90;99.90
12720;DHT22;6424;48.520;11.228;2023-12-20T05:30:03;3.90;99.90
12720;DHT22;6424;48.520;11.228;2023-12-20T05:32:48;4.00;99.90
12720;DHT22;6424;48.520;11.228;2023-12-20T05:35:32;4.00;99.90
12720;DHT22;6424;48.520;11.228;2023-12-20T05:38:16;4.00;99.90
12720;DHT22;6424;48.520;11.228;2023-12-20T05:41:00;4.00;99.90
12720;DHT22;6424;48.520;11.228;2023-12-20T05:43:45;4.00;99.90
12720;DHT22;6424;48.520;11.228;2023-12-20T05:46:29;3.90;99.90
12720;DHT22;6424;48.520;11.228;2023-12-20T05:49:13;3.90;99.90
12720;DHT22;6424;48.520;11.228;2023-12-20T05:51:58;4.00;99.90
12720;DHT22;6424;48.520;11.228;2023-12-20T05:54:42;4.00;99.90
12720;DHT22;6424;48.520;11.228;2023-12-20T05:57:27;3.90;99.90
12720;DHT22;6424;48.520;11.228;2023-12-20T06:00:12;3.90;99.90
12720;DHT22;6424;48.520;11.228;2023-12-20T06:02:57;3.90;99.90
12720;DHT22;6424;48.520;11.228;2023-12-20T06:05:41;3.90;99.90
12720;DHT22;6424;48.520;11.228;2023-12-20T06:08:25;3.90;99.90
12720;DHT22;6424;48.520;11.228;2023-12-20T06:11:09;3.90;99.90
12720;DHT22;6424;48.520;11.228;2023-12-20T06:13:53;4.00;99.90
12720;DHT22;6424;48.520;11.228;2023-12-20T06:16:38;3.90;99.90
12720;DHT22;6424;48.520;11.228;2023-12-20T06:19:22;3.90;99.90
12720;DHT22;6424;48.520;11.228;2023-12-20T06:22:06;3.90;99.90
12720;DHT22;6424;48.520;11.228;2023-12-20T06:24:51;3.90;99.90
12720;DHT22;6424;48.520;11.228;2023-12-20T06:27:35;4.00;99.90
12720;DHT22;6424;48.520;11.228;2023-12-20T06:30:19;3.90;99.90
12720;DHT22;6424;48.520;11.228;2023-12-20T06:33:04;4.00;99.90
12720;DHT22;6424;48.520;11.228;2023-12-20T06:35:50;4.00;99.90
12720;DHT22;6424;48.520;11.228;2023-12-20T06:38:35;4.00;99.90
12720;DHT22;6424;48.520;11.228;2023-12-20T06:41:19;4.00;99.90
12720;DHT22;6424;48.520;11.228;2023-12-20T06:44:03;4.00;99.90
12720;DHT22;6424;48.520;11.228;2023-12-20T06:46:48;4.00;99.90
12720;DHT22;6424;48.520;11.228;2023-12-20T06:49:32;4.00;99.90
12720;DHT22;6424;48.520;11.228;2023-12-20T06:52:16;4.00;99.90
12720;DHT22;6424;48.520;11.228;2023-12-20T06:55:01;4.00;99.90
12720;DHT22;6424;48.520;11.228;2023-12-20T06:57:45;4.00;99.90
12720;DHT22;6424;48.520;11.228;2023-12-20T07:00:30;4.00;99.90
12720;DHT22;6424;48.520;11.228;2023-12-20T07:03:14;4.00;99.90
12720;DHT22;6424;48.520;11.228;2023-12-20T07:05:58;4.00;99.90
12720;DHT22;6424;48.520;11.228;2023-12-20T07:08:44;4.00;99.90
12720;DHT22;6424;48.520;11.228;2023-12-20T07:11:28;4.00;99.90
12720;DHT22;6424;48.520;11.228;2023-12-20T07:14:14;4.00;99.90
12720;DHT22;6424;48.520;11.228;2023-12-20T07:16:58;4.00;99.90
12720;DHT22;6424;48.520;11.228;2023-12-20T07:19:42;4.00;99.90
12720;DHT22;6424;48.520;11.228;2023-12-20T07:22:26;4.00;99.90
12720;DHT22;6424;48.520;11.228;2023-12-20T07:25:10;4.00;99.90
12720;DHT22;6424;48.520;11.228;2023-12-20T07:27:55;4.00;99.90
12720;DHT22;6424;48.520;11.228;2023-12-20T07:30:39;4.00;99.90
12720;DHT22;6424;48.520;11.228;2023-12-20T07:33:23;4.10;99.90
12720;DHT22;6424;48.520;11.228;2023-12-20T07:36:08;4.10;99.90
12720;DHT22;6424;48.520;11.228;2023-12-20T07:38:53;4.10;99.90
12720;DHT22;6424;48.520;11.228;2023-12-20T07:41:37;4.20;99.90
12720;DHT22;6424;48.520;11.228;2023-12-20T07:44:21;4.20;99.90
12720;DHT22;6424;48.520;11.228;2023-12-20T07:47:05;4.20;99.90
12720;DHT22;6424;48.520;11.228;2023-12-20T07:49:50;4.20;99.90
12720;DHT22;6424;48.520;11.228;2023-12-20T07:52:35;4.10;99.90
12720;DHT22;6424;48.520;11.228;2023-12-20T07:55:20;4.10;99.90
12720;DHT22;6424;48.520;11.228;2023-12-20T07:58:05;4.10;99.90
12720;DHT22;6424;48.520;11.228;2023-12-20T08:00:49;4.10;99.90
12720;DHT22;6424;48.520;11.228;2023-12-20T08:03:33;4.10;99.90
12720;DHT22;6424;48.520;11.228;2023-12-20T08:06:17;4.10;99.90
12720;DHT22;6424;48.520;11.228;2023-12-20T08:09:02;4.10;99.90
12720;DHT22;6424;48.520;11.228;2023-12-20T08:11:47;4.10;99.90
12720;DHT22;6424;48.520;11.228;2023-12-20T08:14:31;4.00;99.90
12720;DHT22;6424;48.520;11.228;2023-12-20T08:17:15;4.00;99.90
12720;DHT22;6424;48.520;11.228;2023-12-20T08:20:00;4.00;99.90
12720;DHT22;6424;48.520;11.228;2023-12-20T08:22:44;4.00;99.90
12720;DHT22;6424;48.520;11.228;2023-12-20T08:25:29;4.00;99.90
12720;DHT22;6424;48.520;11.228;2023-12-20T08:28:13;4.00;99.90
12720;DHT22;6424;48.520;11.228;2023-12-20T08:30:57;4.00;99.90
12720;DHT22;6424;48.520;11.228;2023-12-20T08:33:45;4.00;99.90
12720;DHT22;6424;48.520;11.228;2023-12-20T08:36:29;4.00;99.90
12720;DHT22;6424;48.520;11.228;2023-12-20T08:39:14;4.00;99.90
12720;DHT22;6424;48.520;11.228;2023-12-20T08:41:58;4.00;99.90
12720;DHT22;6424;48.520;11.228;2023-12-20T08:44:43;4.10;99.90
12720;DHT22;6424;48.520;11.228;2023-12-20T08:47:27;4.00;99.90
12720;DHT22;6424;48.520;11.228;2023-12-20T08:50:12;4.10;99.90
12720;DHT22;6424;48.520;11.228;2023-12-20T08:52:57;4.10;99.90
12720;DHT22;6424;48.520;11.228;2023-12-20T08:55:41;4.10;99.90
12720;DHT22;6424;48.520;11.228;2023-12-20T08:58:26;4.00;99.90
12720;DHT22;6424;48.520;11.228;2023-12-20T09:01:11;4.10;99.90
12720;DHT22;6424;48.520;11.228;2023-12-20T09:03:55;4.10;99.90
12720;DHT22;6424;48.520;11.228;2023-12-20T09:06:39;4.10;99.90
12720;DHT22;6424;48.520;11.228;2023-12-20T09:09:23;4.20;99.90
12720;DHT22;6424;48.520;11.228;2023-12-20T09:12:08;4.20;99.90
12720;DHT22;6424;48.520;11.228;2023-12-20T09:14:52;4.20;99.90
12720;DHT22;6424;48.520;11.228;2023-12-20T09:17:37;4.30;99.90
12720;DHT22;6424;48.520;11.228;2023-12-20T09:20:21;4.30;99.90
12720;DHT22;6424;48.520;11.228;2023-12-20T09:23:07;4.40;99.90
12720;DHT22;6424;48.520;11.228;2023-12-20T09:25:53;4.40;99.90
12720;DHT22;6424;48.520;11.228;2023-12-20T09:28:38;4.50;99.90
12720;DHT22;6424;48.520;11.228;2023-12-20T09:31:24;4.50;99.90
12720;DHT22;6424;48.520;11.228;2023-12-20T09:34:08;4.60;99.90
12720;DHT22;6424;48.520;11.228;2023-12-20T09:36:53;4.70;99.90
12720;DHT22;6424;48.520;11.228;2023-12-20T09:39:37;4.70;99.90
12720;DHT22;6424;48.520;11.228;2023-12-20T09:42:33;4.70;99.90
12720;DHT22;6424;48.520;11.228;2023-12-20T09:45:22;4.80;99.90
12720;DHT22;6424;48.520;11.228;2023-12-20T09:48:07;4.80;99.90
12720;DHT22;6424;48.520;11.228;2023-12-20T09:50:55;4.80;99.90
12720;DHT22;6424;48.520;11.228;2023-12-20T09:53:41;4.80;99.90
12720;DHT22;6424;48.520;11.228;2023-12-20T09:56:26;4.80;99.90
12720;DHT22;6424;48.520;11.228;2023-12-20T09:59:11;4.80;99.90
12720;DHT22;6424;48.520;11.228;2023-12-20T10:01:56;4.90;99.90
12720;DHT22;6424;48.520;11.228;2023-12-20T10:04:47;4.90;99.90
12720;DHT22;6424;48.520;11.228;2023-12-20T10:07:37;4.80;99.90
12720;DHT22;6424;48.520;11.228;2023-12-20T10:10:22;4.90;99.90
12720;DHT22;6424;48.520;11.228;2023-12-20T10:13:09;4.90;99.90
12720;DHT22;6424;48.520;11.228;2023-12-20T10:15:55;5.00;99.90
12720;DHT22;6424;48.520;11.228;2023-12-20T10:18:39;5.00;99.90
12720;DHT22;6424;48.520;11.228;2023-12-20T10:21:24;5.10;99.90
12720;DHT22;6424;48.520;11.228;2023-12-20T10:24:17;5.10;99.90
12720;DHT22;6424;48.520;11.228;2023-12-20T10:27:05;5.10;99.90
12720;DHT22;6424;48.520;11.228;2023-12-20T10:29:49;5.10;99.90
12720;DHT22;6424;48.520;11.228;2023-12-20T10:32:35;5.20;99.90
12720;DHT22;6424;48.520;11.228;2023-12-20T10:35:19;5.10;99.90
12720;DHT22;6424;48.520;11.228;2023-12-20T10:38:06;5.20;99.90
12720;DHT22;6424;48.520;11.228;2023-12-20T10:40:57;5.10;99.90
12720;DHT22;6424;48.520;11.228;2023-12-20T10:43:43;5.00;99.90
12720;DHT22;6424;48.520;11.228;2023-12-20T10:46:30;5.00;99.90
12720;DHT22;6424;48.520;11.228;2023-12-20T10:49:16;5.00;99.90
12720;DHT22;6424;48.520;11.228;2023-12-20T10:52:02;5.00;99.90
12720;DHT22;6424;48.520;11.228;2023-12-20T10:54:48;5.10;99.90
12720;DHT22;6424;48.520;11.228;2023-12-20T10:57:33;5.10;99.90
12720;DHT22;6424;48.520;11.228;2023-12-20T11:00:21;5.20;99.90
12720;DHT22;6424;48.520;11.228;2023-12-20T11:03:09;5.20;99.90
12720;DHT22;6424;48.520;11.228;2023-12-20T11:05:59;5.20;99.90
12720;DHT22;6424;48.520;11.228;2023-12-20T11:12:46;5.20;99.90
12720;DHT22;6424;48.520;11.228;2023-12-20T11:15:32;5.30;99.90
12720;DHT22;6424;48.520;11.228;2023-12-20T11:18:17;5.40;99.90
12720;DHT22;6424;48.520;11.228;2023-12-20T11:21:04;5.50;99.90
12720;DHT22;6424;48.520;11.228;2023-12-20T11:23:49;5.50;99.90
12720;DHT22;6424;48.520;11.228;2023-12-20T11:26:34;5.50;99.90
12720;DHT22;6424;48.520;11.228;2023-12-20T11:29:35;5.50;99.90
12720;DHT22;6424;48.520;11.228;2023-12-20T11:37:59;5.60;99.90
12720;DHT22;6424;48.520;11.228;2023-12-20T11:40:45;5.60;99.90
12720;DHT22;6424;48.520;11.228;2023-12-20T11:43:32;5.60;99.90
12720;DHT22;6424;48.520;11.228;2023-12-20T11:46:18;5.60;99.90
12720;DHT22;6424;48.520;11.228;2023-12-20T11:49:02;5.80;99.90
12720;DHT22;6424;48.520;11.228;2023-12-20T11:51:47;5.70;99.90
12720;DHT22;6424;48.520;11.228;2023-12-20T11:54:31;5.70;99.90
12720;DHT22;6424;48.520;11.228;2023-12-20T11:57:16;5.70;99.90
12720;DHT22;6424;48.520;11.228;2023-12-20T12:00:01;5.70;99.90
12720;DHT22;6424;48.520;11.228;2023-12-20T12:02:55;5.60;99.90
12720;DHT22;6424;48.520;11.228;2023-12-20T12:05:40;5.70;99.90
12720;DHT22;6424;48.520;11.228;2023-12-20T12:08:25;5.70;99.90
12720;DHT22;6424;48.520;11.228;2023-12-20T12:11:10;5.70;99.90
12720;DHT22;6424;48.520;11.228;2023-12-20T12:13:54;5.60;99.90
12720;DHT22;6424;48.520;11.228;2023-12-20T12:16:38;5.50;99.90
12720;DHT22;6424;48.520;11.228;2023-12-20T12:19:23;5.40;99.90
12720;DHT22;6424;48.520;11.228;2023-12-20T12:22:12;5.40;99.90
12720;DHT22;6424;48.520;11.228;2023-12-20T12:25:10;5.30;99.90
12720;DHT22;6424;48.520;11.228;2023-12-20T12:27:56;5.30;99.90
12720;DHT22;6424;48.520;11.228;2023-12-20T12:30:40;5.30;99.90
12720;DHT22;6424;48.520;11.228;2023-12-20T12:33:26;5.30;99.90
12720;DHT22;6424;48.520;11.228;2023-12-20T12:36:10;5.20;99.90
12720;DHT22;6424;48.520;11.228;2023-12-20T12:39:02;5.20;99.90
12720;DHT22;6424;48.520;11.228;2023-12-20T12:41:48;5.20;99.90
12720;DHT22;6424;48.520;11.228;2023-12-20T12:44:32;5.20;99.90
12720;DHT22;6424;48.520;11.228;2023-12-20T12:47:16;5.10;99.90
12720;DHT22;6424;48.520;11.228;2023-12-20T12:50:01;5.20;99.90
12720;DHT22;6424;48.520;11.228;2023-12-20T12:52:45;5.20;99.90
12720;DHT22;6424;48.520;11.228;2023-12-20T12:55:30;5.20;99.90
12720;DHT22;6424;48.520;11.228;2023-12-20T12:58:14;5.20;99.90
12720;DHT22;6424;48.520;11.228;2023-12-20T13:00:58;5.10;99.90
12720;DHT22;6424;48.520;11.228;2023-12-20T13:03:43;5.00;99.90
12720;DHT22;6424;48.520;11.228;2023-12-20T13:06:27;5.10;99.90
12720;DHT22;6424;48.520;11.228;2023-12-20T13:09:11;5.00;99.90
12720;DHT22;6424;48.520;11.228;2023-12-20T13:11:55;5.00;99.90
12720;DHT22;6424;48.520;11.228;2023-12-20T13:14:40;5.00;99.90
12720;DHT22;6424;48.520;11.228;2023-12-20T13:17:25;4.90;99.90
12720;DHT22;6424;48.520;11.228;2023-12-20T13:20:09;4.90;99.90
12720;DHT22;6424;48.520;11.228;2023-12-20T13:22:54;4.80;99.90
12720;DHT22;6424;48.520;11.228;2023-12-20T13:25:38;4.80;99.90
12720;DHT22;6424;48.520;11.228;2023-12-20T13:28:22;4.70;99.90
12720;DHT22;6424;48.520;11.228;2023-12-20T13:31:07;4.70;99.90
12720;DHT22;6424;48.520;11.228;2023-12-20T13:33:51;4.60;99.90
12720;DHT22;6424;48.520;11.228;2023-12-20T13:36:36;4.60;99.90
12720;DHT22;6424;48.520;11.228;2023-12-20T13:39:20;4.60;99.90
12720;DHT22;6424;48.520;11.228;2023-12-20T13:42:05;4.60;99.90
12720;DHT22;6424;48.520;11.228;2023-12-20T13:44:49;4.60;99.90
12720;DHT22;6424;48.520;11.228;2023-12-20T13:47:33;4.50;99.90
12720;DHT22;6424;48.520;11.228;2023-12-20T13:50:18;4.50;99.90
12720;DHT22;6424;48.520;11.228;2023-12-20T13:53:03;4.40;99.90
12720;DHT22;6424;48.520;11.228;2023-12-20T13:55:48;4.50;99.90
12720;DHT22;6424;48.520;11.228;2023-12-20T13:58:33;4.50;99.90
12720;DHT22;6424;48.520;11.228;2023-12-20T14:01:17;4.50;99.90
12720;DHT22;6424;48.520;11.228;2023-12-20T14:04:02;4.40;99.90
12720;DHT22;6424;48.520;11.228;2023-12-20T14:06:46;4.40;99.90
12720;DHT22;6424;48.520;11.228;2023-12-20T14:09:30;4.40;99.90
12720;DHT22;6424;48.520;11.228;2023-12-20T14:12:14;4.50;99.90
12720;DHT22;6424;48.520;11.228;2023-12-20T14:14:58;4.40;99.90
12720;DHT22;6424;48.520;11.228;2023-12-20T14:17:43;4.40;99.90
12720;DHT22;6424;48.520;11.228;2023-12-20T14:20:27;4.40;99.90
12720;DHT22;6424;48.520;11.228;2023-12-20T14:23:11;4.40;99.90
12720;DHT22;6424;48.520;11.228;2023-12-20T14:25:56;4.30;99.90
12720;DHT22;6424;48.520;11.228;2023-12-20T14:28:42;4.30;99.90
12720;DHT22;6424;48.520;11.228;2023-12-20T14:31:26;4.30;99.90
12720;DHT22;6424;48.520;11.228;2023-12-20T14:34:10;4.30;99.90
12720;DHT22;6424;48.520;11.228;2023-12-20T14:36:54;4.30;99.90
12720;DHT22;6424;48.520;11.228;2023-12-20T14:39:39;4.30;99.90
12720;DHT22;6424;48.520;11.228;2023-12-20T14:42:25;4.30;99.90
12720;DHT22;6424;48.520;11.228;2023-12-20T14:45:09;4.20;99.90
12720;DHT22;6424;48.520;11.228;2023-12-20T14:47:54;4.20;99.90
12720;DHT22;6424;48.520;11.228;2023-12-20T14:50:38;4.20;99.90
12720;DHT22;6424;48.520;11.228;2023-12-20T14:53:24;4.20;99.90
12720;DHT22;6424;48.520;11.228;2023-12-20T14:56:09;4.20;99.90
12720;DHT22;6424;48.520;11.228;2023-12-20T14:58:53;4.20;99.90
12720;DHT22;6424;48.520;11.228;2023-12-20T15:01:37;4.20;99.90
12720;DHT22;6424;48.520;11.228;2023-12-20T15:04:21;4.20;99.90
12720;DHT22;6424;48.520;11.228;2023-12-20T15:07:12;4.20;99.90
12720;DHT22;6424;48.520;11.228;2023-12-20T15:09:56;4.20;99.90
12720;DHT22;6424;48.520;11.228;2023-12-20T15:12:40;4.10;99.90
12720;DHT22;6424;48.520;11.228;2023-12-20T15:15:24;4.10;99.90
12720;DHT22;6424;48.520;11.228;2023-12-20T15:18:10;4.10;99.90
12720;DHT22;6424;48.520;11.228;2023-12-20T15:20:54;4.10;99.90
12720;DHT22;6424;48.520;11.228;2023-12-20T15:23:39;4.00;99.90
12720;DHT22;6424;48.520;11.228;2023-12-20T15:26:25;4.00;99.90
12720;DHT22;6424;48.520;11.228;2023-12-20T15:29:10;4.00;99.90
12720;DHT22;6424;48.520;11.228;2023-12-20T15:31:56;4.00;99.90
12720;DHT22;6424;48.520;11.228;2023-12-20T15:34:40;3.80;99.90
12720;DHT22;6424;48.520;11.228;2023-12-20T15:37:24;3.70;99.90
12720;DHT22;6424;48.520;11.228;2023-12-20T15:40:11;3.70;99.90
12720;DHT22;6424;48.520;11.228;2023-12-20T15:42:55;3.60;99.90
12720;DHT22;6424;48.520;11.228;2023-12-20T15:45:40;3.60;99.90
12720;DHT22;6424;48.520;11.228;2023-12-20T15:48:24;3.60;99.90
12720;DHT22;6424;48.520;11.228;2023-12-20T15:51:14;3.50;99.90
12720;DHT22;6424;48.520;11.228;2023-12-20T15:53:58;3.50;99.90
12720;DHT22;6424;48.520;11.228;2023-12-20T15:56:47;3.50;99.90
12720;DHT22;6424;48.520;11.228;2023-12-20T15:59:32;3.50;99.90
12720;DHT22;6424;48.520;11.228;2023-12-20T16:02:16;3.50;99.90
12720;DHT22;6424;48.520;11.228;2023-12-20T16:05:01;3.50;99.90
12720;DHT22;6424;48.520;11.228;2023-12-20T16:07:46;3.50;99.90
12720;DHT22;6424;48.520;11.228;2023-12-20T16:10:30;3.50;99.90
12720;DHT22;6424;48.520;11.228;2023-12-20T16:13:15;3.50;99.90
12720;DHT22;6424;48.520;11.228;2023-12-20T16:16:03;3.50;99.90
12720;DHT22;6424;48.520;11.228;2023-12-20T16:18:47;3.50;99.90
12720;DHT22;6424;48.520;11.228;2023-12-20T16:21:32;3.40;99.90
12720;DHT22;6424;48.520;11.228;2023-12-20T16:24:16;3.40;99.90
12720;DHT22;6424;48.520;11.228;2023-12-20T16:27:00;3.40;99.90
12720;DHT22;6424;48.520;11.228;2023-12-20T16:29:44;3.30;99.90
12720;DHT22;6424;48.520;11.228;2023-12-20T16:32:28;3.30;99.90
12720;DHT22;6424;48.520;11.228;2023-12-20T16:35:12;3.30;99.90
12720;DHT22;6424;48.520;11.228;2023-12-20T16:37:56;3.20;99.90
12720;DHT22;6424;48.520;11.228;2023-12-20T16:40:41;3.10;99.90
12720;DHT22;6424;48.520;11.228;2023-12-20T16:43:27;3.10;99.90
12720;DHT22;6424;48.520;11.228;2023-12-20T16:46:11;3.10;99.90
12720;DHT22;6424;48.520;11.228;2023-12-20T16:48:55;3.10;99.90
12720;DHT22;6424;48.520;11.228;2023-12-20T16:51:39;3.10;99.90
12720;DHT22;6424;48.520;11.228;2023-12-20T16:54:23;3.00;99.90
12720;DHT22;6424;48.520;11.228;2023-12-20T16:57:08;3.10;99.90
12720;DHT22;6424;48.520;11.228;2023-12-20T16:59:53;3.10;99.90
12720;DHT22;6424;48.520;11.228;2023-12-20T17:02:37;3.10;99.90
12720;DHT22;6424;48.520;11.228;2023-12-20T17:05:22;3.10;99.90
12720;DHT22;6424;48.520;11.228;2023-12-20T17:08:06;3.10;99.90
12720;DHT22;6424;48.520;11.228;2023-12-20T17:10:51;3.10;99.90
12720;DHT22;6424;48.520;11.228;2023-12-20T17:13:35;3.10;99.90
12720;DHT22;6424;48.520;11.228;2023-12-20T17:16:19;3.20;99.90
12720;DHT22;6424;48.520;11.228;2023-12-20T17:19:04;3.20;99.90
12720;DHT22;6424;48.520;11.228;2023-12-20T17:21:48;3.20;99.90
12720;DHT22;6424;48.520;11.228;2023-12-20T17:24:35;3.20;99.90
12720;DHT22;6424;48.520;11.228;2023-12-20T17:27:19;3.20;99.90
12720;DHT22;6424;48.520;11.228;2023-12-20T17:30:04;3.20;99.90
12720;DHT22;6424;48.520;11.228;2023-12-20T17:32:48;3.30;99.90
12720;DHT22;6424;48.520;11.228;2023-12-20T17:35:33;3.20;99.90
12720;DHT22;6424;48.520;11.228;2023-12-20T17:38:18;3.30;99.90
12720;DHT22;6424;48.520;11.228;2023-12-20T17:41:03;3.30;99.90
12720;DHT22;6424;48.520;11.228;2023-12-20T17:43:47;3.30;99.90
12720;DHT22;6424;48.520;11.228;2023-12-20T17:46:31;3.30;99.90